createdAt,value
2018-06-24T00:01:09.482Z,1.40
2018-06-24T00:03:39.270Z,1.50
2018-06-24T00:06:09.054Z,1.30
2018-06-24T00:08:39.010Z,1.60
2018-06-24T00:11:08.912Z,1.47
2018-06-24T00:13:39.151Z,1.67
2018-06-24T00:16:08.805Z,1.40
2018-06-24T00:18:38.514Z,1.53
2018-06-24T00:21:08.068Z,1.60
2018-06-24T00:23:37.918Z,1.40
2018-06-24T00:26:07.927Z,1.77
2018-06-24T00:28:37.603Z,1.30
2018-06-24T00:31:07.141Z,1.63
2018-06-24T00:33:36.823Z,1.30
2018-06-24T00:36:06.859Z,1.37
2018-06-24T00:38:36.807Z,1.30
2018-06-24T00:41:06.380Z,0.90
2018-06-24T00:43:36.008Z,1.20
2018-06-24T00:46:05.770Z,1.17
2018-06-24T00:48:35.724Z,1.23
2018-06-24T00:51:05.598Z,1.10
2018-06-24T00:53:35.304Z,1.40
2018-06-24T00:56:05.212Z,1.53
2018-06-24T00:58:35.130Z,1.87
2018-06-24T01:01:04.878Z,1.10
2018-06-24T01:03:34.708Z,1.07
2018-06-24T01:06:04.526Z,1.27
2018-06-24T01:08:34.163Z,1.13
2018-06-24T01:11:04.142Z,1.37
2018-06-24T01:13:33.738Z,1.27
2018-06-24T01:16:03.422Z,1.10
2018-06-24T01:18:33.104Z,1.40
2018-06-24T01:21:03.075Z,1.67
2018-06-24T01:23:32.641Z,1.20
2018-06-24T01:26:02.488Z,1.40
2018-06-24T01:28:32.130Z,1.50
2018-06-24T01:31:01.784Z,1.17
2018-06-24T01:33:31.515Z,1.30
2018-06-24T01:36:01.318Z,1.20
2018-06-24T01:38:31.027Z,1.70
2018-06-24T01:41:00.582Z,1.40
2018-06-24T01:43:30.199Z,1.60
2018-06-24T01:45:59.814Z,1.70
2018-06-24T01:48:29.545Z,1.67
2018-06-24T01:50:59.352Z,1.40
2018-06-24T01:53:29.135Z,1.50
2018-06-24T01:55:58.796Z,1.80
2018-06-24T01:58:28.583Z,1.60
2018-06-24T02:00:58.265Z,1.30
2018-06-24T02:03:27.780Z,1.43
2018-06-24T02:05:57.359Z,1.90
2018-06-24T02:08:27.252Z,1.20
2018-06-24T02:10:56.882Z,1.67
2018-06-24T02:13:26.479Z,1.37
2018-06-24T02:15:55.975Z,1.47
2018-06-24T02:18:25.791Z,1.40
2018-06-24T02:20:55.492Z,1.23
2018-06-24T02:23:25.141Z,1.20
2018-06-24T02:25:54.827Z,1.50
2018-06-24T02:28:24.771Z,1.40
2018-06-24T02:30:54.852Z,1.20
2018-06-24T02:33:24.860Z,1.90
2018-06-24T02:35:54.682Z,1.60
2018-06-24T02:38:24.380Z,1.57
2018-06-24T02:40:53.920Z,1.50
2018-06-24T02:43:23.451Z,1.57
2018-06-24T02:45:53.094Z,1.60
2018-06-24T02:48:23.244Z,1.93
2018-06-24T02:50:52.985Z,1.50
2018-06-24T02:53:22.719Z,1.53
2018-06-24T02:55:52.184Z,1.30
2018-06-24T02:58:22.010Z,1.40
2018-06-24T03:00:51.943Z,1.73
2018-06-24T03:03:21.955Z,1.83
2018-06-24T03:05:51.838Z,1.40
2018-06-24T03:08:21.505Z,1.60
2018-06-24T03:10:51.066Z,1.40
2018-06-24T03:13:20.784Z,1.30
2018-06-24T03:15:50.465Z,1.50
2018-06-24T03:18:20.521Z,1.57
2018-06-24T03:20:50.288Z,1.10
2018-06-24T03:23:20.149Z,1.73
2018-06-24T03:25:50.038Z,1.07
2018-06-24T03:28:19.959Z,1.20
2018-06-24T03:30:49.898Z,1.40
2018-06-24T03:33:19.654Z,1.47
2018-06-24T03:35:49.282Z,1.40
2018-06-24T03:38:19.027Z,1.53
2018-06-24T03:40:48.644Z,1.50
2018-06-24T03:43:18.304Z,1.60
2018-06-24T03:45:47.874Z,1.70
2018-06-24T03:48:17.903Z,1.27
2018-06-24T03:50:47.545Z,1.53
2018-06-24T03:53:17.507Z,1.37
2018-06-24T03:55:47.323Z,1.40
2018-06-24T03:58:17.098Z,1.40
2018-06-24T04:00:47.182Z,1.13
2018-06-24T04:03:16.964Z,1.37
2018-06-24T04:05:46.936Z,2.90
2018-06-24T04:08:16.899Z,1.33
2018-06-24T04:10:46.563Z,1.30
2018-06-24T04:13:16.202Z,1.40
2018-06-24T04:15:45.887Z,1.43
2018-06-24T04:18:15.929Z,1.60
2018-06-24T04:20:45.606Z,1.30
2018-06-24T04:23:15.672Z,1.63
2018-06-24T04:25:45.375Z,1.70
2018-06-24T04:28:15.093Z,1.30
2018-06-24T04:30:44.976Z,1.57
2018-06-24T04:33:14.933Z,1.23
2018-06-24T04:35:44.799Z,0.90
2018-06-24T04:38:14.491Z,0.90
2018-06-24T04:40:44.088Z,0.90
2018-06-24T04:43:13.683Z,1.10
2018-06-24T04:45:43.437Z,1.20
2018-06-24T04:48:13.395Z,1.30
2018-06-24T04:50:42.972Z,1.20
2018-06-24T04:53:12.629Z,1.20
2018-06-24T04:55:42.483Z,1.30
2018-06-24T04:58:12.440Z,1.60
2018-06-24T05:00:42.213Z,1.73
2018-06-24T05:03:12.027Z,1.10
2018-06-24T05:05:41.785Z,1.13
2018-06-24T05:08:11.579Z,1.10
2018-06-24T05:10:41.147Z,1.20
2018-06-24T05:13:10.750Z,1.20
2018-06-24T05:15:40.582Z,1.20
2018-06-24T05:18:10.227Z,1.10
2018-06-24T05:20:40.008Z,1.07
2018-06-24T05:23:09.954Z,1.10
2018-06-24T05:25:39.717Z,1.07
2018-06-24T05:28:09.578Z,0.90
2018-06-24T05:30:39.518Z,0.80
2018-06-24T05:33:09.524Z,1.10
2018-06-24T05:35:39.406Z,1.20
2018-06-24T05:38:09.033Z,0.93
2018-06-24T05:40:38.942Z,1.07
2018-06-24T05:43:08.526Z,0.70
2018-06-24T05:45:38.178Z,1.20
2018-06-24T05:48:07.947Z,1.50
2018-06-24T05:50:37.691Z,1.10
2018-06-24T05:53:07.607Z,1.13
2018-06-24T05:55:37.427Z,1.20
2018-06-24T05:58:07.280Z,1.13
2018-06-24T06:00:36.827Z,1.17
2018-06-24T06:03:06.699Z,1.57
2018-06-24T06:05:36.470Z,1.37
2018-06-24T06:08:06.439Z,1.10
2018-06-24T06:10:36.122Z,1.30
2018-06-24T06:13:06.184Z,1.17
2018-06-24T06:15:36.384Z,1.10
2018-06-24T06:18:06.217Z,1.10
2018-06-24T06:20:36.159Z,1.20
2018-06-24T06:23:06.067Z,1.50
2018-06-24T06:25:35.788Z,1.17
2018-06-24T06:28:05.672Z,1.20
2018-06-24T06:30:35.702Z,1.20
2018-06-24T06:33:05.519Z,1.00
2018-06-24T06:35:35.194Z,1.10
2018-06-24T06:38:05.210Z,0.80
2018-06-24T06:40:35.042Z,0.97
2018-06-24T06:43:05.166Z,1.67
2018-06-24T06:45:35.146Z,1.07
2018-06-24T06:48:05.251Z,0.97
2018-06-24T06:50:35.051Z,1.03
2018-06-24T06:53:05.036Z,0.87
2018-06-24T06:55:34.819Z,1.10
2018-06-24T06:58:04.499Z,1.43
2018-06-24T07:00:34.421Z,1.20
2018-06-24T07:03:04.244Z,1.20
2018-06-24T07:05:33.947Z,1.03
2018-06-24T07:08:03.923Z,1.10
2018-06-24T07:10:33.997Z,0.93
2018-06-24T07:13:04.083Z,1.20
2018-06-24T07:15:34.082Z,1.53
2018-06-24T07:18:04.107Z,1.40
2018-06-24T07:20:33.810Z,1.40
2018-06-24T07:23:03.508Z,1.77
2018-06-24T07:25:33.512Z,2.70
2018-06-24T07:28:03.595Z,1.40
2018-06-24T07:30:33.528Z,1.37
2018-06-24T07:33:03.344Z,1.20
2018-06-24T07:35:33.483Z,2.37
2018-06-24T07:38:03.203Z,1.20
2018-06-24T07:40:33.141Z,1.20
2018-06-24T07:43:03.976Z,1.60
2018-06-24T07:45:33.658Z,1.00
2018-06-24T07:48:03.684Z,1.20
2018-06-24T07:50:33.343Z,1.33
2018-06-24T07:53:03.067Z,1.30
2018-06-24T07:55:33.068Z,1.00
2018-06-24T07:58:03.155Z,1.00
2018-06-24T08:00:32.803Z,1.20
2018-06-24T08:03:02.494Z,1.40
2018-06-24T08:05:32.492Z,1.13
2018-06-24T08:08:02.181Z,1.50
2018-06-24T08:10:31.950Z,1.10
2018-06-24T08:13:02.014Z,1.00
2018-06-24T08:15:31.709Z,1.20
2018-06-24T08:18:01.659Z,1.30
2018-06-24T08:20:31.260Z,1.13
2018-06-24T08:23:01.181Z,1.10
2018-06-24T08:25:31.153Z,1.00
2018-06-24T08:28:00.976Z,1.00
2018-06-24T08:30:30.687Z,1.30
2018-06-24T08:33:00.506Z,1.77
2018-06-24T08:35:30.159Z,1.80
2018-06-24T08:37:59.890Z,1.77
2018-06-24T08:40:29.595Z,1.47
2018-06-24T08:42:59.343Z,1.10
2018-06-24T08:45:28.876Z,2.00
2018-06-24T08:47:58.678Z,1.20
2018-06-24T08:50:28.579Z,1.10
2018-06-24T08:52:58.323Z,1.20
2018-06-24T08:55:28.182Z,1.43
2018-06-24T08:57:58.255Z,5.60
2018-06-24T09:00:28.617Z,1.10
2018-06-24T09:02:58.669Z,1.00
2018-06-24T09:05:28.191Z,1.20
2018-06-24T09:07:58.138Z,1.50
2018-06-24T09:10:28.007Z,0.90
2018-06-24T09:12:57.632Z,0.90
2018-06-24T09:15:27.286Z,1.40
2018-06-24T09:17:57.160Z,1.10
2018-06-24T09:20:26.985Z,1.10
2018-06-24T09:22:56.894Z,1.20
2018-06-24T09:25:26.925Z,1.03
2018-06-24T09:27:57.022Z,1.20
2018-06-24T09:30:26.944Z,1.20
2018-06-24T09:32:56.984Z,1.27
2018-06-24T09:35:26.605Z,1.57
2018-06-24T09:37:56.622Z,1.30
2018-06-24T09:40:26.170Z,1.10
2018-06-24T09:42:55.769Z,1.00
2018-06-24T09:45:25.455Z,1.23
2018-06-24T09:47:55.339Z,1.80
2018-06-24T09:50:26.174Z,1.20
2018-06-24T09:52:56.228Z,1.40
2018-06-24T09:55:25.883Z,1.10
2018-06-24T09:57:55.501Z,1.87
2018-06-24T10:00:25.171Z,1.30
2018-06-24T10:02:54.873Z,1.00
2018-06-24T10:05:24.478Z,0.83
2018-06-24T10:07:54.224Z,1.10
2018-06-24T10:10:24.113Z,1.03
2018-06-24T10:12:54.311Z,1.13
2018-06-24T10:15:23.900Z,0.93
2018-06-24T10:17:53.600Z,1.20
2018-06-24T10:20:23.466Z,1.27
2018-06-24T10:22:53.133Z,1.10
2018-06-24T10:25:22.903Z,1.20
2018-06-24T10:27:52.800Z,1.10
2018-06-24T10:30:22.468Z,1.33
2018-06-24T10:32:52.130Z,1.30
2018-06-24T10:35:22.155Z,1.33
2018-06-24T10:37:52.533Z,0.93
2018-06-24T10:40:22.213Z,1.00
2018-06-24T10:42:51.834Z,1.10
2018-06-24T10:45:21.759Z,0.90
2018-06-24T10:47:51.896Z,1.37
2018-06-24T10:50:21.832Z,0.80
2018-06-24T10:52:51.813Z,1.03
2018-06-24T10:55:21.565Z,1.17
2018-06-24T10:57:51.443Z,1.30
2018-06-24T11:00:21.541Z,1.00
2018-06-24T11:02:51.139Z,1.27
2018-06-24T11:05:21.004Z,1.07
2018-06-24T11:07:50.766Z,1.20
2018-06-24T11:10:20.735Z,1.00
2018-06-24T11:12:50.306Z,1.00
2018-06-24T11:15:20.131Z,0.97
2018-06-24T11:17:49.876Z,1.10
2018-06-24T11:20:19.640Z,1.30
2018-06-24T11:22:49.567Z,1.80
2018-06-24T11:25:19.358Z,1.00
2018-06-24T11:27:49.761Z,1.30
2018-06-24T11:30:19.494Z,1.10
2018-06-24T11:32:49.487Z,1.20
2018-06-24T11:35:19.431Z,2.47
2018-06-24T11:37:49.177Z,1.10
2018-06-24T11:40:18.755Z,1.00
2018-06-24T11:42:48.342Z,1.10
2018-06-24T11:45:18.379Z,1.10
2018-06-24T11:47:48.573Z,1.10
2018-06-24T11:50:18.252Z,1.10
2018-06-24T11:52:48.284Z,1.20
2018-06-24T11:55:18.015Z,1.32
2018-06-24T11:57:47.799Z,1.15
2018-06-24T12:00:17.602Z,1.20
2018-06-24T12:02:47.191Z,1.35
2018-06-24T12:05:16.893Z,1.05
2018-06-24T12:07:46.439Z,1.22
2018-06-24T12:10:16.150Z,1.20
2018-06-24T12:12:45.731Z,1.17
2018-06-24T12:15:15.387Z,1.40
2018-06-24T12:17:45.137Z,1.33
2018-06-24T12:20:15.069Z,1.20
2018-06-24T12:22:44.621Z,1.40
2018-06-24T12:25:14.575Z,1.20
2018-06-24T12:27:44.378Z,1.90
2018-06-24T12:30:14.150Z,1.60
2018-06-24T12:32:43.860Z,1.65
2018-06-24T12:35:13.852Z,1.50
2018-06-24T12:37:43.409Z,1.20
2018-06-24T12:40:12.975Z,1.50
2018-06-24T12:42:42.779Z,1.20
2018-06-24T12:45:12.533Z,1.37
2018-06-24T12:47:42.291Z,1.87
2018-06-24T12:50:12.342Z,1.40
2018-06-24T12:52:41.886Z,1.20
2018-06-24T12:55:11.675Z,1.45
2018-06-24T12:57:41.503Z,1.50
2018-06-24T13:00:11.720Z,1.27
2018-06-24T13:02:41.115Z,1.40
2018-06-24T13:05:10.715Z,1.42
2018-06-24T13:07:40.530Z,1.55
2018-06-24T13:10:10.740Z,1.22
2018-06-24T13:12:40.743Z,1.20
2018-06-24T13:15:10.696Z,1.40
2018-06-24T13:17:40.573Z,1.70
2018-06-24T13:20:10.262Z,1.40
2018-06-24T13:22:40.044Z,1.50
2018-06-24T13:25:10.020Z,1.30
2018-06-24T13:27:39.735Z,1.20
2018-06-24T13:30:09.644Z,1.45
2018-06-24T13:32:39.667Z,1.40
2018-06-24T13:35:09.554Z,1.40
2018-06-24T13:37:39.067Z,1.30
2018-06-24T13:40:08.816Z,1.40
2018-06-24T13:42:38.694Z,1.10
2018-06-24T13:45:09.188Z,1.20
2018-06-24T13:47:38.952Z,1.85
2018-06-24T13:50:08.974Z,1.10
2018-06-24T13:52:38.571Z,1.40
2018-06-24T13:55:08.418Z,1.50
2018-06-24T13:57:38.381Z,1.20
2018-06-24T14:00:08.160Z,1.70
2018-06-24T14:02:38.230Z,1.45
2018-06-24T14:05:08.127Z,1.47
2018-06-24T14:07:37.879Z,1.50
2018-06-24T14:10:07.611Z,1.35
2018-06-24T14:12:37.485Z,1.17
2018-06-24T14:15:07.188Z,1.30
2018-06-24T14:17:37.429Z,1.35
2018-06-24T14:20:07.375Z,0.93
2018-06-24T14:22:37.299Z,1.30
2018-06-24T14:25:07.207Z,1.22
2018-06-24T14:27:37.089Z,1.20
2018-06-24T14:30:07.049Z,1.52
2018-06-24T14:32:36.651Z,1.15
2018-06-24T14:35:06.254Z,1.22
2018-06-24T14:37:35.786Z,1.45
2018-06-24T14:40:05.687Z,1.20
2018-06-24T14:42:35.660Z,1.10
2018-06-24T14:45:05.256Z,1.10
2018-06-24T14:47:35.237Z,1.72
2018-06-24T14:50:05.047Z,2.77
2018-06-24T14:52:34.747Z,1.50
2018-06-24T14:55:04.652Z,1.40
2018-06-24T14:57:34.332Z,1.50
2018-06-24T15:00:04.727Z,1.40
2018-06-24T15:02:36.034Z,1.45
2018-06-24T15:05:05.919Z,1.17
2018-06-24T15:07:35.484Z,1.52
2018-06-24T15:10:05.655Z,1.67
2018-06-24T15:12:35.818Z,1.40
2018-06-24T15:15:05.689Z,1.47
2018-06-24T15:17:35.326Z,1.67
2018-06-24T15:20:05.316Z,1.40
2018-06-24T15:22:35.242Z,1.22
2018-06-24T15:25:05.264Z,1.32
2018-06-24T15:27:35.052Z,1.30
2018-06-24T15:30:05.222Z,1.50
2018-06-24T15:32:34.891Z,1.37
2018-06-24T15:35:04.536Z,1.40
2018-06-24T15:37:34.391Z,1.60
2018-06-24T15:40:04.352Z,1.80
2018-06-24T15:42:34.158Z,1.30
2018-06-24T15:45:03.935Z,1.50
2018-06-24T15:47:33.607Z,1.72
2018-06-24T15:50:03.590Z,1.60
2018-06-24T15:52:33.302Z,1.35
2018-06-24T15:55:03.175Z,1.72
2018-06-24T15:57:33.227Z,1.55
2018-06-24T16:00:02.933Z,2.12
2018-06-24T16:02:32.521Z,1.85
2018-06-24T16:05:02.081Z,2.35
2018-06-24T16:07:31.815Z,2.37
2018-06-24T16:10:01.617Z,1.50
2018-06-24T16:12:31.294Z,1.70
2018-06-24T16:15:01.099Z,1.95
2018-06-24T16:17:30.821Z,1.60
2018-06-24T16:20:00.671Z,2.55
2018-06-24T16:22:30.653Z,1.77
2018-06-24T16:25:00.495Z,1.40
2018-06-24T16:27:30.211Z,1.82
2018-06-24T16:29:59.894Z,1.72
2018-06-24T16:32:29.435Z,1.67
2018-06-24T16:34:59.109Z,2.20
2018-06-24T16:37:35.467Z,2.20
2018-06-24T16:40:05.790Z,1.80
2018-06-24T16:42:35.795Z,1.57
2018-06-24T16:45:05.616Z,1.70
2018-06-24T16:47:41.883Z,2.50
2018-06-24T16:50:11.896Z,2.00
2018-06-24T16:52:42.006Z,2.17
2018-06-24T16:55:11.970Z,1.40
2018-06-24T16:57:42.144Z,1.40
2018-06-24T17:00:11.631Z,2.40
2018-06-24T17:02:41.182Z,1.55
2018-06-24T17:05:10.767Z,2.00
2018-06-24T17:07:40.801Z,1.90
2018-06-24T17:10:10.561Z,2.25
2018-06-24T17:12:40.414Z,2.02
2018-06-24T17:15:10.375Z,1.72
2018-06-24T17:17:40.060Z,1.50
2018-06-24T17:20:09.924Z,1.30
2018-06-24T17:22:40.066Z,2.17
2018-06-24T17:25:09.827Z,2.08
2018-06-24T17:27:40.043Z,2.17
2018-06-24T17:30:09.746Z,2.02
2018-06-24T17:32:39.422Z,2.50
2018-06-24T17:35:09.106Z,2.10
2018-06-24T17:37:38.742Z,1.62
2018-06-24T17:40:08.483Z,1.45
2018-06-24T17:42:38.485Z,1.33
2018-06-24T17:45:08.298Z,1.40
2018-06-24T17:47:38.220Z,1.40
2018-06-24T17:50:08.189Z,2.47
2018-06-24T17:52:37.782Z,2.33
2018-06-24T17:55:07.798Z,1.80
2018-06-24T17:57:37.339Z,1.77
2018-06-24T18:00:07.062Z,1.50
2018-06-24T18:02:36.712Z,1.20
2018-06-24T18:05:06.693Z,1.73
2018-06-24T18:07:36.729Z,2.63
2018-06-24T18:10:06.551Z,1.73
2018-06-24T18:12:36.175Z,2.30
2018-06-24T18:15:06.055Z,2.93
2018-06-24T18:17:35.998Z,1.77
2018-06-24T18:20:06.156Z,1.90
2018-06-24T18:22:36.184Z,2.00
2018-06-24T18:25:05.868Z,1.80
2018-06-24T18:27:35.544Z,1.70
2018-06-24T18:30:05.428Z,1.33
2018-06-24T18:32:35.277Z,1.40
2018-06-24T18:35:05.133Z,1.47
2018-06-24T18:37:34.960Z,1.40
2018-06-24T18:40:05.130Z,1.63
2018-06-24T18:42:35.077Z,1.73
2018-06-24T18:45:04.731Z,1.87
2018-06-24T18:47:34.585Z,2.30
2018-06-24T18:50:04.679Z,1.40
2018-06-24T18:52:34.671Z,2.07
2018-06-24T18:55:04.279Z,2.13
2018-06-24T18:57:33.947Z,3.10
2018-06-24T19:00:04.006Z,3.10
2018-06-24T19:02:34.009Z,2.53
2018-06-24T19:05:03.746Z,2.50
2018-06-24T19:07:33.474Z,1.30
2018-06-24T19:10:03.579Z,1.60
2018-06-24T19:12:33.638Z,1.60
2018-06-24T19:15:03.638Z,1.87
2018-06-24T19:17:33.348Z,1.83
2018-06-24T19:20:03.372Z,2.23
2018-06-24T19:22:33.275Z,1.90
2018-06-24T19:25:02.921Z,1.70
2018-06-24T19:27:32.538Z,1.90
2018-06-24T19:30:02.454Z,1.83
2018-06-24T19:32:32.160Z,2.53
2018-06-24T19:35:02.077Z,2.70
2018-06-24T19:37:31.886Z,2.47
2018-06-24T19:40:01.507Z,2.40
2018-06-24T19:42:31.341Z,2.43
2018-06-24T19:45:01.075Z,2.30
2018-06-24T19:47:30.665Z,6.33
2018-06-24T19:50:00.274Z,5.70
2018-06-24T19:52:29.820Z,5.27
2018-06-24T19:54:59.336Z,4.17
2018-06-24T19:57:29.058Z,4.17
2018-06-24T19:59:58.543Z,3.63
2018-06-24T20:02:28.253Z,4.17
2018-06-24T20:04:57.995Z,4.80
2018-06-24T20:07:27.783Z,5.13
2018-06-24T20:09:57.701Z,4.03
2018-06-24T20:12:27.407Z,4.93
2018-06-24T20:14:57.337Z,4.17
2018-06-24T20:17:27.118Z,3.80
2018-06-24T20:19:57.150Z,3.80
2018-06-24T20:22:26.905Z,3.77
2018-06-24T20:24:56.650Z,3.77
2018-06-24T20:27:26.341Z,3.27
2018-06-24T20:29:56.498Z,3.50
2018-06-24T20:32:26.482Z,3.73
2018-06-24T20:34:56.407Z,2.80
2018-06-24T20:37:26.523Z,2.70
2018-06-24T20:39:56.472Z,2.73
2018-06-24T20:42:26.415Z,2.50
2018-06-24T20:44:56.155Z,2.30
2018-06-24T20:47:26.265Z,2.40
2018-06-24T20:49:55.865Z,1.93
2018-06-24T20:52:25.777Z,2.73
2018-06-24T20:54:55.607Z,2.30
2018-06-24T20:57:25.451Z,2.20
2018-06-24T20:59:55.188Z,2.20
2018-06-24T21:02:25.047Z,2.27
2018-06-24T21:04:54.963Z,2.23
2018-06-24T21:07:25.095Z,2.00
2018-06-24T21:09:54.978Z,2.20
2018-06-24T21:12:24.799Z,2.17
2018-06-24T21:14:54.650Z,2.20
2018-06-24T21:17:24.383Z,2.17
2018-06-24T21:19:54.443Z,2.00
2018-06-24T21:22:23.995Z,1.80
2018-06-24T21:24:53.560Z,2.10
2018-06-24T21:27:23.615Z,2.00
2018-06-24T21:29:53.231Z,2.13
2018-06-24T21:32:23.066Z,1.90
2018-06-24T21:34:52.870Z,2.13
2018-06-24T21:37:22.614Z,1.97
2018-06-24T21:39:52.491Z,1.90
2018-06-24T21:42:22.353Z,2.37
2018-06-24T21:44:52.148Z,2.07
2018-06-24T21:47:21.654Z,2.13
2018-06-24T21:49:51.583Z,2.23
2018-06-24T21:52:21.206Z,1.93
2018-06-24T21:54:50.740Z,2.40
2018-06-24T21:57:20.883Z,2.00
2018-06-24T21:59:50.698Z,1.83
2018-06-24T22:02:20.555Z,2.10
2018-06-24T22:04:50.491Z,1.77
2018-06-24T22:07:20.647Z,2.00
2018-06-24T22:09:50.456Z,1.97
2018-06-24T22:12:20.220Z,2.13
2018-06-24T22:14:49.878Z,1.90
2018-06-24T22:17:19.847Z,1.80
2018-06-24T22:19:49.375Z,2.17
2018-06-24T22:22:18.943Z,2.00
2018-06-24T22:24:48.510Z,2.00
2018-06-24T22:27:18.275Z,1.87
2018-06-24T22:29:47.894Z,1.60
2018-06-24T22:32:17.483Z,1.70
2018-06-24T22:34:47.416Z,2.10
2018-06-24T22:37:17.634Z,1.87
2018-06-24T22:39:47.647Z,2.07
2018-06-24T22:42:17.454Z,1.80
2018-06-24T22:44:47.208Z,1.77
2018-06-24T22:47:17.355Z,2.47
2018-06-24T22:49:46.972Z,1.90
2018-06-24T22:52:16.548Z,2.50
2018-06-24T22:54:46.180Z,2.53
2018-06-24T22:57:16.151Z,1.63
2018-06-24T23:00:01.866Z,1.80
2018-06-24T23:02:31.566Z,1.80
2018-06-24T23:05:01.304Z,1.50
2018-06-24T23:07:31.112Z,1.83
2018-06-24T23:10:00.968Z,2.23
2018-06-24T23:12:30.900Z,2.00
2018-06-24T23:15:01.193Z,2.20
2018-06-24T23:17:31.160Z,2.20
2018-06-24T23:20:00.727Z,2.00
2018-06-24T23:22:30.717Z,1.67
2018-06-24T23:25:00.403Z,2.00
2018-06-24T23:27:30.467Z,1.90
2018-06-24T23:30:00.475Z,2.20
2018-06-24T23:32:30.306Z,2.33
2018-06-24T23:35:00.363Z,2.10
2018-06-24T23:37:29.915Z,1.90
2018-06-24T23:39:59.771Z,1.83
2018-06-24T23:42:29.752Z,2.67
2018-06-24T23:44:59.588Z,2.03
2018-06-24T23:47:29.776Z,1.70
2018-06-24T23:49:59.491Z,1.80
2018-06-24T23:52:29.109Z,2.07
2018-06-24T23:54:59.182Z,1.80
2018-06-24T23:57:29.028Z,2.00
2018-06-24T23:59:58.847Z,1.67
